createdAt,value
2018-12-11T00:00:32.230Z,4.07
2018-12-11T00:03:00.334Z,3.50
2018-12-11T00:05:28.513Z,3.23
2018-12-11T00:07:56.621Z,4.20
2018-12-11T00:10:24.749Z,3.20
2018-12-11T00:12:52.864Z,2.70
2018-12-11T00:15:21.121Z,3.50
2018-12-11T00:17:49.280Z,3.73
2018-12-11T00:20:17.397Z,3.90
2018-12-11T00:22:45.648Z,4.77
2018-12-11T00:25:13.898Z,4.23
2018-12-11T00:27:42.053Z,4.20
2018-12-11T00:30:10.307Z,3.83
2018-12-11T00:32:38.462Z,3.37
2018-12-11T00:35:06.654Z,3.70
2018-12-11T00:37:34.831Z,3.73
2018-12-11T00:40:03.032Z,3.67
2018-12-11T00:42:31.202Z,3.57
2018-12-11T00:44:59.313Z,3.20
2018-12-11T00:47:27.569Z,4.03
2018-12-11T00:49:55.668Z,3.90
2018-12-11T00:52:23.829Z,3.90
2018-12-11T00:54:51.993Z,4.67
2018-12-11T00:57:20.176Z,3.73
2018-12-11T00:59:48.365Z,3.83
2018-12-11T01:02:16.681Z,4.50
2018-12-11T01:04:44.874Z,3.73
2018-12-11T01:07:13.095Z,4.60
2018-12-11T01:09:41.283Z,4.70
2018-12-11T01:12:09.535Z,3.80
2018-12-11T01:14:37.641Z,3.53
2018-12-11T01:17:05.797Z,3.80
2018-12-11T01:19:34.043Z,3.97
2018-12-11T01:22:02.920Z,3.23
2018-12-11T01:24:31.073Z,3.10
2018-12-11T01:26:59.173Z,5.47
2018-12-11T01:29:27.386Z,4.80
2018-12-11T01:31:55.557Z,3.33
2018-12-11T01:34:23.653Z,3.80
2018-12-11T01:36:51.749Z,2.97
2018-12-11T01:39:19.845Z,4.40
2018-12-11T01:41:47.963Z,2.77
2018-12-11T01:44:16.132Z,3.47
2018-12-11T01:46:44.313Z,4.00
2018-12-11T01:49:12.545Z,3.80
2018-12-11T01:51:40.737Z,3.13
2018-12-11T01:54:08.914Z,3.40
2018-12-11T01:56:37.018Z,3.70
2018-12-11T01:59:05.844Z,3.83
2018-12-11T02:01:34.106Z,2.50
2018-12-11T02:04:02.362Z,3.80
2018-12-11T02:06:31.531Z,2.70
2018-12-11T02:08:59.740Z,3.20
2018-12-11T02:11:27.930Z,3.00
2018-12-11T02:13:56.046Z,3.10
2018-12-11T02:16:24.302Z,4.30
2018-12-11T02:18:52.475Z,2.33
2018-12-11T02:21:20.642Z,3.80
2018-12-11T02:23:48.770Z,3.50
2018-12-11T02:26:16.976Z,2.80
2018-12-11T02:28:45.162Z,3.50
2018-12-11T02:31:13.441Z,3.20
2018-12-11T02:33:41.700Z,3.30
2018-12-11T02:36:09.807Z,3.37
2018-12-11T02:38:37.995Z,2.47
2018-12-11T02:41:06.268Z,3.37
2018-12-11T02:43:34.522Z,3.03
2018-12-11T02:46:02.739Z,3.70
2018-12-11T02:48:31.067Z,3.80
2018-12-11T02:50:59.298Z,3.33
2018-12-11T02:53:27.401Z,4.03
2018-12-11T02:55:55.512Z,3.13
2018-12-11T02:58:23.694Z,3.90
2018-12-11T03:00:51.823Z,3.73
2018-12-11T03:03:20.100Z,4.80
2018-12-11T03:05:48.282Z,3.43
2018-12-11T03:08:16.486Z,3.93
2018-12-11T03:10:44.785Z,2.93
2018-12-11T03:13:13.015Z,3.20
2018-12-11T03:15:41.255Z,3.73
2018-12-11T03:18:09.464Z,2.60
2018-12-11T03:20:37.646Z,3.03
2018-12-11T03:23:05.821Z,3.43
2018-12-11T03:25:34.015Z,3.27
2018-12-11T03:28:02.151Z,4.00
2018-12-11T03:30:30.260Z,2.57
2018-12-11T03:32:58.439Z,4.23
2018-12-11T03:35:26.731Z,3.50
2018-12-11T03:37:54.835Z,4.00
2018-12-11T03:40:23.111Z,3.73
2018-12-11T03:42:51.322Z,2.87
2018-12-11T03:45:19.587Z,4.03
2018-12-11T03:47:47.789Z,3.70
2018-12-11T03:50:16.013Z,3.70
2018-12-11T03:52:44.148Z,3.60
2018-12-11T03:55:12.434Z,3.83
2018-12-11T03:57:40.575Z,4.80
2018-12-11T04:00:09.281Z,3.37
2018-12-11T04:02:37.554Z,4.47
2018-12-11T04:05:06.386Z,3.70
2018-12-11T04:07:34.673Z,3.70
2018-12-11T04:10:03.063Z,4.50
2018-12-11T04:12:31.269Z,3.90
2018-12-11T04:14:59.578Z,3.73
2018-12-11T04:17:27.786Z,3.40
2018-12-11T04:19:55.917Z,3.63
2018-12-11T04:22:24.123Z,3.00
2018-12-11T04:24:52.250Z,4.13
2018-12-11T04:27:20.492Z,3.40
2018-12-11T04:29:48.697Z,3.67
2018-12-11T04:32:16.827Z,4.00
2018-12-11T04:34:45.030Z,2.57
2018-12-11T04:37:13.223Z,4.03
2018-12-11T04:39:41.354Z,2.70
2018-12-11T04:42:09.601Z,3.10
2018-12-11T04:44:37.798Z,3.40
2018-12-11T04:47:06.051Z,3.50
2018-12-11T04:49:34.178Z,2.60
2018-12-11T04:52:02.361Z,2.97
2018-12-11T04:54:30.618Z,3.10
2018-12-11T04:56:58.869Z,3.70
2018-12-11T04:59:26.981Z,4.03
2018-12-11T05:01:55.065Z,3.10
2018-12-11T05:04:23.247Z,4.77
2018-12-11T05:06:51.517Z,3.73
2018-12-11T05:09:19.710Z,3.40
2018-12-11T05:11:47.899Z,2.93
2018-12-11T05:14:16.014Z,2.67
2018-12-11T05:16:44.157Z,3.87
2018-12-11T05:19:12.459Z,3.13
2018-12-11T05:21:40.577Z,4.00
2018-12-11T05:24:08.841Z,3.13
2018-12-11T05:26:37.038Z,3.67
2018-12-11T05:29:05.158Z,3.60
2018-12-11T05:31:33.409Z,3.70
2018-12-11T05:34:01.531Z,3.70
2018-12-11T05:36:29.720Z,2.80
2018-12-11T05:38:57.915Z,3.20
2018-12-11T05:41:26.128Z,3.60
2018-12-11T05:43:54.259Z,3.97
2018-12-11T05:46:22.452Z,4.83
2018-12-11T05:48:50.633Z,3.40
2018-12-11T05:51:18.834Z,3.30
2018-12-11T05:53:46.958Z,5.20
2018-12-11T05:56:15.098Z,3.50
2018-12-11T05:58:43.292Z,3.97
2018-12-11T06:01:11.586Z,3.40
2018-12-11T06:03:39.884Z,4.20
2018-12-11T06:06:08.013Z,3.50
2018-12-11T06:08:36.148Z,2.87
2018-12-11T06:11:04.357Z,3.50
2018-12-11T06:13:32.483Z,2.87
2018-12-11T06:16:00.625Z,3.13
2018-12-11T06:18:28.843Z,2.80
2018-12-11T06:20:57.077Z,3.93
2018-12-11T06:23:25.204Z,3.03
2018-12-11T06:25:53.342Z,4.13
2018-12-11T06:28:21.480Z,2.93
2018-12-11T06:30:49.915Z,3.53
2018-12-11T06:33:18.146Z,4.50
2018-12-11T06:35:46.274Z,3.87
2018-12-11T06:38:14.402Z,3.97
2018-12-11T06:40:52.969Z,3.73
2018-12-11T06:43:21.158Z,5.10
2018-12-11T06:45:49.410Z,3.47
2018-12-11T06:48:17.550Z,4.67
2018-12-11T06:50:45.686Z,3.57
2018-12-11T06:53:13.900Z,3.57
2018-12-11T06:55:42.006Z,4.90
2018-12-11T06:58:10.193Z,3.50
2018-12-11T07:00:38.406Z,3.13
2018-12-11T07:03:06.530Z,4.20
2018-12-11T07:05:35.209Z,2.60
2018-12-11T07:08:03.469Z,3.20
2018-12-11T07:10:31.735Z,4.27
2018-12-11T07:12:59.916Z,3.10
2018-12-11T07:15:28.097Z,3.17
2018-12-11T07:17:56.215Z,3.57
2018-12-11T07:20:24.467Z,3.67
2018-12-11T07:22:52.592Z,2.90
2018-12-11T07:25:20.825Z,2.90
2018-12-11T07:27:49.031Z,3.30
2018-12-11T07:30:17.217Z,2.70
2018-12-11T07:32:45.337Z,3.50
2018-12-11T07:35:13.526Z,3.03
2018-12-11T07:37:41.655Z,3.70
2018-12-11T07:40:09.940Z,3.37
2018-12-11T07:42:38.268Z,4.57
2018-12-11T07:45:06.530Z,3.40
2018-12-11T07:47:34.665Z,3.70
2018-12-11T07:50:02.941Z,4.40
2018-12-11T07:52:31.144Z,3.70
2018-12-11T07:54:59.254Z,4.90
2018-12-11T07:57:27.374Z,4.67
2018-12-11T07:59:55.468Z,3.93
2018-12-11T08:02:23.739Z,4.30
2018-12-11T08:04:51.869Z,3.40
2018-12-11T08:07:20.118Z,4.53
2018-12-11T08:09:48.404Z,5.40
2018-12-11T08:12:16.606Z,3.83
2018-12-11T08:14:44.806Z,5.07
2018-12-11T08:17:12.986Z,4.80
2018-12-11T08:19:41.799Z,4.70
2018-12-11T08:22:10.030Z,4.30
2018-12-11T08:24:38.154Z,3.93
2018-12-11T08:27:06.785Z,3.50
2018-12-11T08:29:34.928Z,3.87
2018-12-11T08:32:03.291Z,4.33
2018-12-11T08:34:31.406Z,3.27
2018-12-11T08:36:59.526Z,3.63
2018-12-11T08:39:27.762Z,3.70
2018-12-11T08:41:55.884Z,3.43
2018-12-11T08:44:25.268Z,3.50
2018-12-11T08:46:53.545Z,3.70
2018-12-11T08:49:21.676Z,4.47
2018-12-11T08:51:49.859Z,3.60
2018-12-11T08:54:17.981Z,3.27
2018-12-11T08:56:46.218Z,4.80
2018-12-11T08:59:14.332Z,4.63
2018-12-11T09:01:42.564Z,4.20
2018-12-11T09:04:10.682Z,3.90
2018-12-11T09:06:38.807Z,4.70
2018-12-11T09:09:07.493Z,4.43
2018-12-11T09:11:35.698Z,4.00
2018-12-11T09:14:04.049Z,5.00
2018-12-11T09:16:32.298Z,4.00
2018-12-11T09:19:00.456Z,4.20
2018-12-11T09:21:28.634Z,3.70
2018-12-11T09:23:56.822Z,4.23
2018-12-11T09:26:25.067Z,4.63
2018-12-11T09:28:53.167Z,5.10
2018-12-11T09:31:21.379Z,4.40
2018-12-11T09:33:49.488Z,3.90
2018-12-11T09:36:17.683Z,4.47
2018-12-11T09:38:45.800Z,4.17
2018-12-11T09:41:14.004Z,5.23
2018-12-11T09:43:42.126Z,4.70
2018-12-11T09:46:10.543Z,4.53
2018-12-11T09:48:38.767Z,5.23
2018-12-11T09:51:07.058Z,5.07
2018-12-11T09:53:35.280Z,4.90
2018-12-11T09:56:03.493Z,5.43
2018-12-11T09:58:31.710Z,4.23
2018-12-11T10:00:59.934Z,4.67
2018-12-11T10:03:28.090Z,6.53
2018-12-11T10:05:56.380Z,5.13
2018-12-11T10:08:24.655Z,6.90
2018-12-11T10:10:52.867Z,5.00
2018-12-11T10:13:27.879Z,4.70
2018-12-11T10:15:56.004Z,5.40
2018-12-11T10:18:24.224Z,5.63
2018-12-11T10:20:52.421Z,6.03
2018-12-11T10:23:20.926Z,4.23
2018-12-11T10:25:49.093Z,3.77
2018-12-11T10:28:17.294Z,3.30
2018-12-11T10:30:47.762Z,4.10
2018-12-11T10:33:16.444Z,5.20
2018-12-11T10:35:44.678Z,4.90
2018-12-11T10:38:12.921Z,3.63
2018-12-11T10:40:41.142Z,4.07
2018-12-11T10:43:09.265Z,4.20
2018-12-11T10:45:37.491Z,5.20
2018-12-11T10:48:05.785Z,2.90
2018-12-11T10:50:33.946Z,3.93
2018-12-11T10:53:02.082Z,5.57
2018-12-11T10:55:30.315Z,4.73
2018-12-11T10:57:59.515Z,4.00
2018-12-11T11:00:33.133Z,3.83
2018-12-11T11:03:07.291Z,3.50
2018-12-11T11:05:35.501Z,3.50
2018-12-11T11:08:03.797Z,4.87
2018-12-11T11:10:31.934Z,4.20
2018-12-11T11:13:00.214Z,4.20
2018-12-11T11:15:28.333Z,4.00
2018-12-11T11:17:56.632Z,3.80
2018-12-11T11:20:24.772Z,4.27
2018-12-11T11:22:53.038Z,3.90
2018-12-11T11:25:21.234Z,3.43
2018-12-11T11:27:49.440Z,3.17
2018-12-11T11:30:17.642Z,4.10
2018-12-11T11:32:45.845Z,3.93
2018-12-11T11:35:14.052Z,3.57
2018-12-11T11:37:42.186Z,3.77
2018-12-11T11:40:10.310Z,3.70
2018-12-11T11:42:38.850Z,3.40
2018-12-11T11:45:08.220Z,3.10
2018-12-11T11:47:36.380Z,6.43
2018-12-11T11:50:06.090Z,4.70
2018-12-11T11:52:34.239Z,4.17
2018-12-11T11:55:02.366Z,3.40
2018-12-11T11:57:30.499Z,4.10
2018-12-11T11:59:58.625Z,4.23
2018-12-11T12:02:33.228Z,3.83
2018-12-11T12:04:57.066Z,4.13
2018-12-11T12:07:25.234Z,4.17
2018-12-11T12:09:53.434Z,3.77
2018-12-11T12:12:21.553Z,5.07
2018-12-11T12:14:49.690Z,4.70
2018-12-11T12:17:17.807Z,4.00
2018-12-11T12:19:46.009Z,3.43
2018-12-11T12:22:14.150Z,3.63
2018-12-11T12:24:42.302Z,3.67
2018-12-11T12:27:10.532Z,4.70
2018-12-11T12:29:38.759Z,4.40
2018-12-11T12:32:07.000Z,3.10
2018-12-11T12:34:35.158Z,4.97
2018-12-11T12:37:03.352Z,4.00
2018-12-11T12:39:31.493Z,3.00
2018-12-11T12:41:59.813Z,3.30
2018-12-11T12:44:28.026Z,2.97
2018-12-11T12:46:56.170Z,3.50
2018-12-11T12:49:24.293Z,3.17
2018-12-11T12:51:52.450Z,2.17
2018-12-11T12:54:20.581Z,2.53
2018-12-11T12:56:48.756Z,2.90
2018-12-11T12:59:17.020Z,3.20
2018-12-11T13:01:45.161Z,3.43
2018-12-11T13:04:13.366Z,2.70
2018-12-11T13:06:41.852Z,2.53
2018-12-11T13:09:10.149Z,3.17
2018-12-11T13:11:38.261Z,2.87
2018-12-11T13:14:06.391Z,2.60
2018-12-11T13:16:34.551Z,2.90
2018-12-11T13:19:02.753Z,2.40
2018-12-11T13:21:30.958Z,2.93
2018-12-11T13:23:59.089Z,3.20
2018-12-11T13:26:27.233Z,2.77
2018-12-11T13:28:55.360Z,3.00
2018-12-11T13:31:23.515Z,3.77
2018-12-11T13:33:51.720Z,1.93
2018-12-11T13:36:19.843Z,3.13
2018-12-11T13:38:48.065Z,2.70
2018-12-11T13:41:16.297Z,3.00
2018-12-11T13:43:44.766Z,3.20
2018-12-11T13:46:12.962Z,2.80
2018-12-11T13:48:41.183Z,2.70
2018-12-11T13:51:09.370Z,2.30
2018-12-11T13:53:37.494Z,2.30
2018-12-11T13:56:05.779Z,3.17
2018-12-11T13:58:33.981Z,3.10
2018-12-11T14:01:02.105Z,2.80
2018-12-11T14:03:30.225Z,3.77
2018-12-11T14:05:58.347Z,2.60
2018-12-11T14:08:27.034Z,2.60
2018-12-11T14:10:55.171Z,2.70
2018-12-11T14:13:23.299Z,3.47
2018-12-11T14:15:51.503Z,3.10
2018-12-11T14:18:19.736Z,2.70
2018-12-11T14:20:47.942Z,2.90
2018-12-11T14:23:16.080Z,3.00
2018-12-11T14:25:44.374Z,3.73
2018-12-11T14:28:12.558Z,3.27
2018-12-11T14:30:40.836Z,2.57
2018-12-11T14:33:09.065Z,2.83
2018-12-11T14:35:37.298Z,3.50
2018-12-11T14:38:05.439Z,3.07
2018-12-11T14:40:33.634Z,2.90
2018-12-11T14:43:01.850Z,2.67
2018-12-11T14:45:29.979Z,2.53
2018-12-11T14:47:58.113Z,2.73
2018-12-11T14:50:26.467Z,2.50
2018-12-11T14:52:54.614Z,3.17
2018-12-11T14:55:22.734Z,2.53
2018-12-11T14:57:50.939Z,2.53
2018-12-11T15:00:19.232Z,3.47
2018-12-11T15:02:47.623Z,3.03
2018-12-11T15:05:16.126Z,3.50
2018-12-11T15:07:44.485Z,2.73
2018-12-11T15:10:12.838Z,4.33
2018-12-11T15:12:41.040Z,2.77
2018-12-11T15:15:10.286Z,3.70
2018-12-11T15:17:38.385Z,3.80
2018-12-11T15:20:08.160Z,3.73
2018-12-11T15:22:36.446Z,4.33
2018-12-11T15:25:05.017Z,7.70
2018-12-11T15:27:33.234Z,4.67
2018-12-11T15:30:01.402Z,4.90
2018-12-11T15:32:29.510Z,4.67
2018-12-11T15:34:57.623Z,5.50
2018-12-11T15:37:25.785Z,5.10
2018-12-11T15:39:53.911Z,3.73
2018-12-11T15:42:22.042Z,3.50
2018-12-11T15:44:50.170Z,3.80
2018-12-11T15:47:18.281Z,3.77
2018-12-11T15:49:46.398Z,3.87
2018-12-11T15:52:14.518Z,5.73
2018-12-11T15:54:42.628Z,3.40
2018-12-11T15:57:10.826Z,4.00
2018-12-11T15:59:39.038Z,3.60
2018-12-11T16:02:07.226Z,2.60
2018-12-11T16:04:35.343Z,3.30
2018-12-11T16:07:03.650Z,2.77
2018-12-11T16:09:37.173Z,3.30
2018-12-11T16:12:06.299Z,3.47
2018-12-11T16:14:34.870Z,3.43
2018-12-11T16:17:03.131Z,2.97
2018-12-11T16:19:31.409Z,2.80
2018-12-11T16:21:59.762Z,2.80
2018-12-11T16:24:27.986Z,3.07
2018-12-11T16:26:56.194Z,3.00
2018-12-11T16:29:24.311Z,2.80
2018-12-11T16:31:52.591Z,2.20
2018-12-11T16:34:20.712Z,2.37
2018-12-11T16:36:48.886Z,2.43
2018-12-11T16:39:17.076Z,2.73
2018-12-11T16:41:45.169Z,2.40
2018-12-11T16:44:13.261Z,2.33
2018-12-11T16:46:41.431Z,1.93
2018-12-11T16:49:09.537Z,1.40
2018-12-11T16:51:37.641Z,2.50
2018-12-11T16:54:05.840Z,1.50
2018-12-11T16:56:33.930Z,1.93
2018-12-11T16:59:02.127Z,2.10
2018-12-11T17:01:30.213Z,1.90
2018-12-11T17:03:58.508Z,1.80
2018-12-11T17:06:26.659Z,1.77
2018-12-11T17:08:54.838Z,1.60
2018-12-11T17:11:23.019Z,1.70
2018-12-11T17:13:51.142Z,1.67
2018-12-11T17:16:19.332Z,1.80
2018-12-11T17:18:47.461Z,1.90
2018-12-11T17:21:15.575Z,1.67
2018-12-11T17:23:43.757Z,1.60
2018-12-11T17:26:11.909Z,1.80
2018-12-11T17:28:40.105Z,2.20
2018-12-11T17:31:08.253Z,1.83
2018-12-11T17:33:36.394Z,2.03
2018-12-11T17:36:04.596Z,1.70
2018-12-11T17:38:32.805Z,1.60
2018-12-11T17:41:00.924Z,1.70
2018-12-11T17:43:29.274Z,2.00
2018-12-11T17:45:57.472Z,2.00
2018-12-11T17:48:25.902Z,1.83
2018-12-11T17:50:54.448Z,2.10
2018-12-11T17:53:22.841Z,1.70
2018-12-11T17:55:50.952Z,2.50
2018-12-11T17:58:19.059Z,1.93
2018-12-11T18:00:47.246Z,1.90
2018-12-11T18:03:15.418Z,2.43
2018-12-11T18:05:43.639Z,2.37
2018-12-11T18:08:11.826Z,2.87
2018-12-11T18:10:39.932Z,2.47
2018-12-11T18:13:08.118Z,2.83
2018-12-11T18:15:36.219Z,3.20
2018-12-11T18:18:04.473Z,3.63
2018-12-11T18:20:32.760Z,3.40
2018-12-11T18:23:00.998Z,2.53
2018-12-11T18:25:29.122Z,3.30
2018-12-11T18:27:57.249Z,2.87
2018-12-11T18:30:25.366Z,3.70
2018-12-11T18:32:53.475Z,3.07
2018-12-11T18:35:22.317Z,2.70
2018-12-11T18:37:50.487Z,3.53
2018-12-11T18:40:18.694Z,4.10
2018-12-11T18:42:46.875Z,3.53
2018-12-11T18:45:15.135Z,4.10
2018-12-11T18:47:49.712Z,3.53
2018-12-11T18:50:13.593Z,3.83
2018-12-11T18:52:41.830Z,3.60
2018-12-11T18:55:10.075Z,3.60
2018-12-11T18:57:38.338Z,4.37
2018-12-11T19:00:08.442Z,3.80
2018-12-11T19:02:36.579Z,4.40
2018-12-11T19:05:05.378Z,2.93
2018-12-11T19:07:33.581Z,3.80
2018-12-11T19:10:01.920Z,3.57
2018-12-11T19:12:30.325Z,4.10
2018-12-11T19:15:04.615Z,4.20
2018-12-11T19:17:28.756Z,5.03
2018-12-11T19:19:57.166Z,4.80
2018-12-11T19:22:25.353Z,3.77
2018-12-11T19:24:55.380Z,4.30
2018-12-11T19:27:24.045Z,4.10
2018-12-11T19:29:52.264Z,3.70
2018-12-11T19:32:20.612Z,3.87
2018-12-11T19:34:48.803Z,3.97
2018-12-11T19:37:17.069Z,3.03
2018-12-11T19:39:45.270Z,4.37
2018-12-11T19:42:13.538Z,3.20
2018-12-11T19:44:41.688Z,3.67
2018-12-11T19:47:09.830Z,3.60
2018-12-11T19:49:38.167Z,3.90
2018-12-11T19:52:06.306Z,4.30
2018-12-11T19:54:34.525Z,3.33
2018-12-11T19:57:03.148Z,3.80
2018-12-11T19:59:41.677Z,5.10
2018-12-11T20:02:10.249Z,3.90
2018-12-11T20:04:38.404Z,4.17
2018-12-11T20:07:06.492Z,4.57
2018-12-11T20:09:36.652Z,3.60
2018-12-11T20:12:04.787Z,4.47
2018-12-11T20:14:32.983Z,5.27
2018-12-11T20:17:01.126Z,3.80
2018-12-11T20:19:29.289Z,4.80
2018-12-11T20:21:57.491Z,4.57
2018-12-11T20:24:25.627Z,3.90
2018-12-11T20:26:53.774Z,4.00
2018-12-11T20:29:21.896Z,4.60
2018-12-11T20:31:50.032Z,5.23
2018-12-11T20:34:18.108Z,4.10
2018-12-11T20:36:46.358Z,4.10
2018-12-11T20:39:14.480Z,4.60
2018-12-11T20:41:42.577Z,4.37
2018-12-11T20:44:10.715Z,4.93
2018-12-11T20:46:38.907Z,4.93
2018-12-11T20:49:07.055Z,4.57
2018-12-11T20:51:35.152Z,4.83
2018-12-11T20:54:03.367Z,4.07
2018-12-11T20:56:31.545Z,6.50
2018-12-11T20:58:59.748Z,4.83
2018-12-11T21:01:27.817Z,3.90
2018-12-11T21:03:55.889Z,4.70
2018-12-11T21:06:24.053Z,4.63
2018-12-11T21:08:52.126Z,4.93
2018-12-11T21:11:20.279Z,4.50
2018-12-11T21:13:48.472Z,5.10
2018-12-11T21:16:16.542Z,5.00
2018-12-11T21:18:44.955Z,4.50
2018-12-11T21:21:13.529Z,4.80
2018-12-11T21:23:41.677Z,6.37
2018-12-11T21:26:09.812Z,4.80
2018-12-11T21:28:37.904Z,4.40
2018-12-11T21:31:06.121Z,4.90
2018-12-11T21:33:34.242Z,5.07
2018-12-11T21:36:02.358Z,4.00
2018-12-11T21:38:30.472Z,4.40
2018-12-11T21:40:58.586Z,5.10
2018-12-11T21:43:26.835Z,4.70
2018-12-11T21:45:55.003Z,4.93
2018-12-11T21:48:23.176Z,5.10
2018-12-11T21:50:52.040Z,5.13
2018-12-11T21:53:20.394Z,4.87
2018-12-11T21:55:48.641Z,5.03
2018-12-11T21:58:17.064Z,4.77
2018-12-11T22:00:45.257Z,5.77
2018-12-11T22:03:13.779Z,4.93
2018-12-11T22:05:42.110Z,5.03
2018-12-11T22:08:10.284Z,5.83
2018-12-11T22:10:38.525Z,4.87
2018-12-11T22:13:06.788Z,5.43
2018-12-11T22:15:34.880Z,5.20
2018-12-11T22:18:03.052Z,4.63
2018-12-11T22:20:31.226Z,4.20
2018-12-11T22:22:59.350Z,5.33
2018-12-11T22:25:27.442Z,5.20
2018-12-11T22:27:55.542Z,5.23
2018-12-11T22:30:23.687Z,5.60
2018-12-11T22:32:51.865Z,4.87
2018-12-11T22:35:19.971Z,4.60
2018-12-11T22:37:48.149Z,5.87
2018-12-11T22:40:16.262Z,4.73
2018-12-11T22:42:44.455Z,4.73
2018-12-11T22:45:12.614Z,5.70
2018-12-11T22:47:40.710Z,5.77
2018-12-11T22:50:08.870Z,5.10
2018-12-11T22:52:37.005Z,5.17
2018-12-11T22:55:05.482Z,4.73
2018-12-11T22:57:33.568Z,4.70
2018-12-11T23:00:01.730Z,5.27
2018-12-11T23:02:30.254Z,5.43
2018-12-11T23:04:58.493Z,5.37
2018-12-11T23:07:26.594Z,5.90
2018-12-11T23:09:54.718Z,5.20
2018-12-11T23:12:22.886Z,5.80
2018-12-11T23:14:51.005Z,5.33
2018-12-11T23:17:19.180Z,5.30
2018-12-11T23:19:47.319Z,5.60
2018-12-11T23:22:15.474Z,5.53
2018-12-11T23:24:43.995Z,6.50
2018-12-11T23:27:12.320Z,6.17
2018-12-11T23:29:40.424Z,6.50
2018-12-11T23:32:08.950Z,6.47
2018-12-11T23:34:37.039Z,5.97
2018-12-11T23:37:05.286Z,6.47
2018-12-11T23:39:33.406Z,5.93
2018-12-11T23:42:01.565Z,6.50
2018-12-11T23:44:29.710Z,6.67
2018-12-11T23:46:57.877Z,6.40
2018-12-11T23:49:25.986Z,6.47
2018-12-11T23:51:54.153Z,6.70
2018-12-11T23:54:22.257Z,5.97
2018-12-11T23:56:50.344Z,7.30
2018-12-11T23:59:18.544Z,6.43
